sensor_id;sensor_type;location;lat;lon;timestamp;P1;durP1;ratioP1;P2;durP2;ratioP2
77111;SDS011;66064;50.226;14.344;2023-12-29T00:02:02;16.52;;;15.13;;
77111;SDS011;66064;50.226;14.344;2023-12-29T00:04:29;16.83;;;15.55;;
77111;SDS011;66064;50.226;14.344;2023-12-29T00:06:55;16.42;;;15.18;;
77111;SDS011;66064;50.226;14.344;2023-12-29T00:09:21;16.73;;;15.13;;
77111;SDS011;66064;50.226;14.344;2023-12-29T00:11:49;15.20;;;13.70;;
77111;SDS011;66064;50.226;14.344;2023-12-29T00:14:16;15.82;;;14.48;;
77111;SDS011;66064;50.226;14.344;2023-12-29T00:16:42;16.10;;;14.95;;
77111;SDS011;66064;50.226;14.344;2023-12-29T00:19:13;15.23;;;14.23;;
77111;SDS011;66064;50.226;14.344;2023-12-29T00:21:40;14.55;;;13.35;;
77111;SDS011;66064;50.226;14.344;2023-12-29T00:24:06;14.73;;;13.70;;
77111;SDS011;66064;50.226;14.344;2023-12-29T00:26:33;14.38;;;12.80;;
77111;SDS011;66064;50.226;14.344;2023-12-29T00:28:59;13.15;;;11.85;;
77111;SDS011;66064;50.226;14.344;2023-12-29T00:31:25;15.68;;;14.57;;
77111;SDS011;66064;50.226;14.344;2023-12-29T00:33:52;15.38;;;14.20;;
77111;SDS011;66064;50.226;14.344;2023-12-29T00:36:19;15.27;;;13.80;;
77111;SDS011;66064;50.226;14.344;2023-12-29T00:38:46;16.25;;;15.05;;
77111;SDS011;66064;50.226;14.344;2023-12-29T00:41:13;15.90;;;14.85;;
77111;SDS011;66064;50.226;14.344;2023-12-29T00:43:39;13.32;;;12.25;;
77111;SDS011;66064;50.226;14.344;2023-12-29T00:46:05;15.68;;;14.27;;
77111;SDS011;66064;50.226;14.344;2023-12-29T00:48:31;16.83;;;15.52;;
77111;SDS011;66064;50.226;14.344;2023-12-29T00:51:00;12.77;;;11.85;;
77111;SDS011;66064;50.226;14.344;2023-12-29T00:53:28;15.50;;;14.48;;
77111;SDS011;66064;50.226;14.344;2023-12-29T00:55:55;15.68;;;14.43;;
77111;SDS011;66064;50.226;14.344;2023-12-29T00:58:21;15.90;;;14.77;;
77111;SDS011;66064;50.226;14.344;2023-12-29T01:00:47;15.82;;;14.63;;
77111;SDS011;66064;50.226;14.344;2023-12-29T01:03:14;14.30;;;13.18;;
77111;SDS011;66064;50.226;14.344;2023-12-29T01:05:40;12.80;;;12.00;;
77111;SDS011;66064;50.226;14.344;2023-12-29T01:08:06;12.40;;;11.40;;
77111;SDS011;66064;50.226;14.344;2023-12-29T01:10:32;15.02;;;13.80;;
77111;SDS011;66064;50.226;14.344;2023-12-29T01:12:59;15.10;;;13.95;;
77111;SDS011;66064;50.226;14.344;2023-12-29T01:15:24;13.57;;;12.48;;
77111;SDS011;66064;50.226;14.344;2023-12-29T01:17:51;12.48;;;11.20;;
77111;SDS011;66064;50.226;14.344;2023-12-29T01:20:19;14.73;;;13.63;;
77111;SDS011;66064;50.226;14.344;2023-12-29T01:22:45;15.43;;;14.15;;
77111;SDS011;66064;50.226;14.344;2023-12-29T01:25:11;15.27;;;14.27;;
77111;SDS011;66064;50.226;14.344;2023-12-29T01:27:38;14.02;;;13.02;;
77111;SDS011;66064;50.226;14.344;2023-12-29T01:30:04;13.05;;;12.07;;
77111;SDS011;66064;50.226;14.344;2023-12-29T01:32:31;12.40;;;11.60;;
77111;SDS011;66064;50.226;14.344;2023-12-29T01:34:57;14.82;;;13.82;;
77111;SDS011;66064;50.226;14.344;2023-12-29T01:37:23;15.18;;;14.02;;
77111;SDS011;66064;50.226;14.344;2023-12-29T01:39:49;14.60;;;13.43;;
77111;SDS011;66064;50.226;14.344;2023-12-29T01:42:16;13.18;;;12.27;;
77111;SDS011;66064;50.226;14.344;2023-12-29T01:44:42;16.98;;;15.57;;
77111;SDS011;66064;50.226;14.344;2023-12-29T01:47:14;14.63;;;13.45;;
77111;SDS011;66064;50.226;14.344;2023-12-29T01:49:43;14.18;;;13.27;;
77111;SDS011;66064;50.226;14.344;2023-12-29T01:52:11;16.65;;;15.48;;
77111;SDS011;66064;50.226;14.344;2023-12-29T01:54:38;15.25;;;14.07;;
77111;SDS011;66064;50.226;14.344;2023-12-29T01:57:07;16.25;;;15.25;;
77111;SDS011;66064;50.226;14.344;2023-12-29T01:59:35;13.55;;;12.63;;
77111;SDS011;66064;50.226;14.344;2023-12-29T02:02:02;10.98;;;10.23;;
77111;SDS011;66064;50.226;14.344;2023-12-29T02:04:28;12.13;;;11.27;;
77111;SDS011;66064;50.226;14.344;2023-12-29T02:06:55;12.27;;;11.38;;
77111;SDS011;66064;50.226;14.344;2023-12-29T02:09:21;12.30;;;11.60;;
77111;SDS011;66064;50.226;14.344;2023-12-29T02:11:48;11.75;;;10.85;;
77111;SDS011;66064;50.226;14.344;2023-12-29T02:14:15;12.45;;;11.65;;
77111;SDS011;66064;50.226;14.344;2023-12-29T02:22:23;16.50;;;15.60;;
77111;SDS011;66064;50.226;14.344;2023-12-29T02:24:51;12.98;;;12.13;;
77111;SDS011;66064;50.226;14.344;2023-12-29T02:27:21;8.32;;;7.47;;
77111;SDS011;66064;50.226;14.344;2023-12-29T02:29:55;12.93;;;12.00;;
77111;SDS011;66064;50.226;14.344;2023-12-29T02:32:28;12.00;;;11.20;;
77111;SDS011;66064;50.226;14.344;2023-12-29T02:34:56;10.10;;;8.20;;
77111;SDS011;66064;50.226;14.344;2023-12-29T02:37:24;14.27;;;13.30;;
77111;SDS011;66064;50.226;14.344;2023-12-29T02:39:53;14.68;;;13.70;;
77111;SDS011;66064;50.226;14.344;2023-12-29T02:42:21;14.32;;;13.43;;
77111;SDS011;66064;50.226;14.344;2023-12-29T02:44:48;12.23;;;11.32;;
77111;SDS011;66064;50.226;14.344;2023-12-29T02:47:14;13.60;;;12.70;;
77111;SDS011;66064;50.226;14.344;2023-12-29T02:49:42;14.48;;;13.43;;
77111;SDS011;66064;50.226;14.344;2023-12-29T02:52:08;12.52;;;11.73;;
77111;SDS011;66064;50.226;14.344;2023-12-29T02:54:35;12.00;;;11.18;;
77111;SDS011;66064;50.226;14.344;2023-12-29T02:57:01;13.43;;;12.52;;
77111;SDS011;66064;50.226;14.344;2023-12-29T02:59:27;12.68;;;11.80;;
77111;SDS011;66064;50.226;14.344;2023-12-29T03:01:54;11.32;;;10.52;;
77111;SDS011;66064;50.226;14.344;2023-12-29T03:04:22;13.90;;;13.00;;
77111;SDS011;66064;50.226;14.344;2023-12-29T03:06:49;13.25;;;12.35;;
77111;SDS011;66064;50.226;14.344;2023-12-29T03:09:15;13.43;;;12.40;;
77111;SDS011;66064;50.226;14.344;2023-12-29T03:11:42;13.52;;;12.73;;
77111;SDS011;66064;50.226;14.344;2023-12-29T03:14:07;12.82;;;11.93;;
77111;SDS011;66064;50.226;14.344;2023-12-29T03:16:34;12.95;;;11.90;;
77111;SDS011;66064;50.226;14.344;2023-12-29T03:19:00;13.52;;;12.73;;
77111;SDS011;66064;50.226;14.344;2023-12-29T03:21:27;10.57;;;9.88;;
77111;SDS011;66064;50.226;14.344;2023-12-29T03:23:53;14.23;;;13.27;;
77111;SDS011;66064;50.226;14.344;2023-12-29T03:26:19;13.32;;;12.45;;
77111;SDS011;66064;50.226;14.344;2023-12-29T03:28:45;14.73;;;13.57;;
77111;SDS011;66064;50.226;14.344;2023-12-29T03:31:12;13.00;;;12.00;;
77111;SDS011;66064;50.226;14.344;2023-12-29T03:33:37;14.68;;;13.75;;
77111;SDS011;66064;50.226;14.344;2023-12-29T03:36:04;16.70;;;15.38;;
77111;SDS011;66064;50.226;14.344;2023-12-29T03:38:30;11.63;;;10.93;;
77111;SDS011;66064;50.226;14.344;2023-12-29T03:40:59;8.95;;;8.25;;
77111;SDS011;66064;50.226;14.344;2023-12-29T03:43:26;16.08;;;15.27;;
77111;SDS011;66064;50.226;14.344;2023-12-29T03:45:52;12.10;;;11.25;;
77111;SDS011;66064;50.226;14.344;2023-12-29T03:48:18;14.40;;;13.18;;
77111;SDS011;66064;50.226;14.344;2023-12-29T03:50:44;8.30;;;7.55;;
77111;SDS011;66064;50.226;14.344;2023-12-29T03:53:10;16.17;;;15.07;;
77111;SDS011;66064;50.226;14.344;2023-12-29T03:55:36;10.38;;;9.75;;
77111;SDS011;66064;50.226;14.344;2023-12-29T03:58:04;11.77;;;10.98;;
77111;SDS011;66064;50.226;14.344;2023-12-29T04:00:30;12.63;;;11.77;;
77111;SDS011;66064;50.226;14.344;2023-12-29T04:02:56;14.25;;;13.25;;
77111;SDS011;66064;50.226;14.344;2023-12-29T04:05:23;12.80;;;12.02;;
77111;SDS011;66064;50.226;14.344;2023-12-29T04:07:48;11.95;;;10.93;;
77111;SDS011;66064;50.226;14.344;2023-12-29T04:10:15;13.35;;;12.18;;
77111;SDS011;66064;50.226;14.344;2023-12-29T04:12:41;14.38;;;13.57;;
77111;SDS011;66064;50.226;14.344;2023-12-29T04:15:08;14.38;;;13.57;;
77111;SDS011;66064;50.226;14.344;2023-12-29T04:17:35;12.85;;;11.93;;
77111;SDS011;66064;50.226;14.344;2023-12-29T04:20:01;14.82;;;13.98;;
77111;SDS011;66064;50.226;14.344;2023-12-29T04:22:28;12.05;;;11.23;;
77111;SDS011;66064;50.226;14.344;2023-12-29T04:24:54;14.13;;;13.10;;
77111;SDS011;66064;50.226;14.344;2023-12-29T04:27:20;15.43;;;14.63;;
77111;SDS011;66064;50.226;14.344;2023-12-29T04:29:46;11.95;;;11.30;;
77111;SDS011;66064;50.226;14.344;2023-12-29T04:32:13;14.07;;;13.30;;
77111;SDS011;66064;50.226;14.344;2023-12-29T04:34:39;11.32;;;10.57;;
77111;SDS011;66064;50.226;14.344;2023-12-29T04:37:05;17.75;;;14.93;;
77111;SDS011;66064;50.226;14.344;2023-12-29T04:39:31;13.80;;;12.88;;
77111;SDS011;66064;50.226;14.344;2023-12-29T04:41:58;12.27;;;11.57;;
77111;SDS011;66064;50.226;14.344;2023-12-29T04:44:24;11.95;;;11.15;;
77111;SDS011;66064;50.226;14.344;2023-12-29T04:46:50;16.55;;;15.70;;
77111;SDS011;66064;50.226;14.344;2023-12-29T04:49:16;11.70;;;10.82;;
77111;SDS011;66064;50.226;14.344;2023-12-29T04:51:43;8.13;;;7.57;;
77111;SDS011;66064;50.226;14.344;2023-12-29T04:54:09;14.15;;;13.13;;
77111;SDS011;66064;50.226;14.344;2023-12-29T04:56:36;12.70;;;11.80;;
77111;SDS011;66064;50.226;14.344;2023-12-29T04:59:02;14.90;;;13.68;;
77111;SDS011;66064;50.226;14.344;2023-12-29T05:01:29;13.48;;;12.27;;
77111;SDS011;66064;50.226;14.344;2023-12-29T05:03:54;13.32;;;12.63;;
77111;SDS011;66064;50.226;14.344;2023-12-29T05:06:21;14.93;;;13.95;;
77111;SDS011;66064;50.226;14.344;2023-12-29T05:08:47;13.75;;;12.55;;
77111;SDS011;66064;50.226;14.344;2023-12-29T05:11:13;10.60;;;9.77;;
77111;SDS011;66064;50.226;14.344;2023-12-29T05:13:39;12.00;;;11.20;;
77111;SDS011;66064;50.226;14.344;2023-12-29T05:16:05;18.58;;;17.02;;
77111;SDS011;66064;50.226;14.344;2023-12-29T05:18:31;12.93;;;12.10;;
77111;SDS011;66064;50.226;14.344;2023-12-29T05:20:57;16.52;;;15.40;;
77111;SDS011;66064;50.226;14.344;2023-12-29T05:23:24;13.95;;;13.00;;
77111;SDS011;66064;50.226;14.344;2023-12-29T05:25:52;14.85;;;13.98;;
77111;SDS011;66064;50.226;14.344;2023-12-29T05:28:19;13.93;;;12.93;;
77111;SDS011;66064;50.226;14.344;2023-12-29T05:30:46;13.07;;;12.35;;
77111;SDS011;66064;50.226;14.344;2023-12-29T05:33:12;11.85;;;10.93;;
77111;SDS011;66064;50.226;14.344;2023-12-29T05:35:39;19.27;;;17.35;;
77111;SDS011;66064;50.226;14.344;2023-12-29T05:38:05;16.10;;;14.63;;
77111;SDS011;66064;50.226;14.344;2023-12-29T05:40:31;15.82;;;14.43;;
77111;SDS011;66064;50.226;14.344;2023-12-29T05:42:58;17.05;;;15.65;;
77111;SDS011;66064;50.226;14.344;2023-12-29T05:45:24;20.60;;;19.05;;
77111;SDS011;66064;50.226;14.344;2023-12-29T05:47:51;20.00;;;16.48;;
77111;SDS011;66064;50.226;14.344;2023-12-29T05:50:18;33.22;;;23.13;;
77111;SDS011;66064;50.226;14.344;2023-12-29T05:52:45;37.13;;;25.65;;
77111;SDS011;66064;50.226;14.344;2023-12-29T05:55:15;54.80;;;29.77;;
77111;SDS011;66064;50.226;14.344;2023-12-29T05:57:41;43.38;;;23.52;;
77111;SDS011;66064;50.226;14.344;2023-12-29T06:00:08;42.20;;;24.20;;
77111;SDS011;66064;50.226;14.344;2023-12-29T06:02:40;22.52;;;15.63;;
77111;SDS011;66064;50.226;14.344;2023-12-29T06:05:10;45.25;;;23.00;;
77111;SDS011;66064;50.226;14.344;2023-12-29T06:07:36;29.80;;;17.50;;
77111;SDS011;66064;50.226;14.344;2023-12-29T06:10:03;28.23;;;19.42;;
77111;SDS011;66064;50.226;14.344;2023-12-29T06:12:29;19.63;;;17.83;;
77111;SDS011;66064;50.226;14.344;2023-12-29T06:14:56;17.95;;;16.10;;
77111;SDS011;66064;50.226;14.344;2023-12-29T06:17:22;14.85;;;13.35;;
77111;SDS011;66064;50.226;14.344;2023-12-29T06:19:49;12.60;;;11.07;;
77111;SDS011;66064;50.226;14.344;2023-12-29T06:22:15;14.02;;;13.02;;
77111;SDS011;66064;50.226;14.344;2023-12-29T06:24:41;16.05;;;14.88;;
77111;SDS011;66064;50.226;14.344;2023-12-29T06:27:11;15.02;;;13.57;;
77111;SDS011;66064;50.226;14.344;2023-12-29T06:29:40;16.80;;;15.48;;
77111;SDS011;66064;50.226;14.344;2023-12-29T06:32:07;14.52;;;13.30;;
77111;SDS011;66064;50.226;14.344;2023-12-29T06:34:33;14.13;;;12.85;;
77111;SDS011;66064;50.226;14.344;2023-12-29T06:36:59;21.35;;;16.23;;
77111;SDS011;66064;50.226;14.344;2023-12-29T06:39:26;16.13;;;14.73;;
77111;SDS011;66064;50.226;14.344;2023-12-29T06:41:52;15.35;;;13.93;;
77111;SDS011;66064;50.226;14.344;2023-12-29T06:44:18;13.48;;;12.43;;
77111;SDS011;66064;50.226;14.344;2023-12-29T06:46:44;10.60;;;9.95;;
77111;SDS011;66064;50.226;14.344;2023-12-29T06:49:10;12.32;;;11.55;;
77111;SDS011;66064;50.226;14.344;2023-12-29T06:51:36;11.27;;;10.57;;
77111;SDS011;66064;50.226;14.344;2023-12-29T06:54:07;12.48;;;11.65;;
77111;SDS011;66064;50.226;14.344;2023-12-29T06:56:33;13.07;;;12.15;;
77111;SDS011;66064;50.226;14.344;2023-12-29T06:58:59;14.45;;;13.65;;
77111;SDS011;66064;50.226;14.344;2023-12-29T07:01:25;11.60;;;10.80;;
77111;SDS011;66064;50.226;14.344;2023-12-29T07:03:51;9.50;;;8.85;;
77111;SDS011;66064;50.226;14.344;2023-12-29T07:06:17;12.02;;;11.23;;
77111;SDS011;66064;50.226;14.344;2023-12-29T07:08:43;13.30;;;12.48;;
77111;SDS011;66064;50.226;14.344;2023-12-29T07:11:10;12.80;;;12.10;;
77111;SDS011;66064;50.226;14.344;2023-12-29T07:13:37;12.07;;;11.27;;
77111;SDS011;66064;50.226;14.344;2023-12-29T07:16:04;14.35;;;13.45;;
77111;SDS011;66064;50.226;14.344;2023-12-29T07:18:30;11.20;;;10.40;;
77111;SDS011;66064;50.226;14.344;2023-12-29T07:20:58;12.27;;;11.57;;
77111;SDS011;66064;50.226;14.344;2023-12-29T07:23:25;12.85;;;11.85;;
77111;SDS011;66064;50.226;14.344;2023-12-29T07:25:51;25.92;;;17.73;;
77111;SDS011;66064;50.226;14.344;2023-12-29T07:28:17;16.67;;;15.13;;
77111;SDS011;66064;50.226;14.344;2023-12-29T07:30:45;20.90;;;14.88;;
77111;SDS011;66064;50.226;14.344;2023-12-29T07:33:11;29.83;;;20.90;;
77111;SDS011;66064;50.226;14.344;2023-12-29T07:35:37;24.45;;;15.20;;
77111;SDS011;66064;50.226;14.344;2023-12-29T07:38:03;36.13;;;17.85;;
77111;SDS011;66064;50.226;14.344;2023-12-29T07:40:30;84.97;;;37.58;;
77111;SDS011;66064;50.226;14.344;2023-12-29T07:42:57;52.85;;;26.92;;
77111;SDS011;66064;50.226;14.344;2023-12-29T07:45:23;20.75;;;15.15;;
77111;SDS011;66064;50.226;14.344;2023-12-29T07:47:48;21.40;;;19.10;;
77111;SDS011;66064;50.226;14.344;2023-12-29T07:50:15;13.95;;;12.80;;
77111;SDS011;66064;50.226;14.344;2023-12-29T07:52:42;12.88;;;12.07;;
77111;SDS011;66064;50.226;14.344;2023-12-29T07:55:10;14.05;;;13.15;;
77111;SDS011;66064;50.226;14.344;2023-12-29T07:57:36;12.15;;;11.30;;
77111;SDS011;66064;50.226;14.344;2023-12-29T08:00:03;11.98;;;11.10;;
77111;SDS011;66064;50.226;14.344;2023-12-29T08:04:58;10.48;;;9.77;;
77111;SDS011;66064;50.226;14.344;2023-12-29T08:07:24;11.25;;;10.55;;
77111;SDS011;66064;50.226;14.344;2023-12-29T08:09:51;7.38;;;6.78;;
77111;SDS011;66064;50.226;14.344;2023-12-29T08:12:17;7.47;;;6.78;;
77111;SDS011;66064;50.226;14.344;2023-12-29T08:14:44;12.13;;;11.43;;
77111;SDS011;66064;50.226;14.344;2023-12-29T08:17:10;10.00;;;9.40;;
77111;SDS011;66064;50.226;14.344;2023-12-29T08:19:36;10.65;;;9.95;;
77111;SDS011;66064;50.226;14.344;2023-12-29T08:22:02;13.55;;;12.57;;
77111;SDS011;66064;50.226;14.344;2023-12-29T08:24:28;10.07;;;9.38;;
77111;SDS011;66064;50.226;14.344;2023-12-29T08:26:55;10.10;;;9.43;;
77111;SDS011;66064;50.226;14.344;2023-12-29T08:29:21;12.02;;;11.02;;
77111;SDS011;66064;50.226;14.344;2023-12-29T08:31:47;12.80;;;11.75;;
77111;SDS011;66064;50.226;14.344;2023-12-29T08:34:13;12.63;;;11.38;;
77111;SDS011;66064;50.226;14.344;2023-12-29T08:36:39;13.30;;;12.50;;
77111;SDS011;66064;50.226;14.344;2023-12-29T08:39:05;12.23;;;11.43;;
77111;SDS011;66064;50.226;14.344;2023-12-29T08:41:31;12.55;;;11.57;;
77111;SDS011;66064;50.226;14.344;2023-12-29T08:43:58;13.38;;;12.18;;
77111;SDS011;66064;50.226;14.344;2023-12-29T08:46:23;12.52;;;11.57;;
77111;SDS011;66064;50.226;14.344;2023-12-29T08:48:50;12.68;;;11.68;;
77111;SDS011;66064;50.226;14.344;2023-12-29T08:51:16;26.92;;;24.25;;
77111;SDS011;66064;50.226;14.344;2023-12-29T08:53:43;13.43;;;12.30;;
77111;SDS011;66064;50.226;14.344;2023-12-29T08:56:09;13.80;;;12.90;;
77111;SDS011;66064;50.226;14.344;2023-12-29T08:58:35;7.80;;;7.10;;
77111;SDS011;66064;50.226;14.344;2023-12-29T09:01:01;12.88;;;11.77;;
77111;SDS011;66064;50.226;14.344;2023-12-29T09:03:30;7.18;;;6.47;;
77111;SDS011;66064;50.226;14.344;2023-12-29T09:05:55;17.95;;;15.95;;
77111;SDS011;66064;50.226;14.344;2023-12-29T09:08:23;11.75;;;10.82;;
77111;SDS011;66064;50.226;14.344;2023-12-29T09:10:49;10.50;;;9.70;;
77111;SDS011;66064;50.226;14.344;2023-12-29T09:13:16;18.15;;;14.00;;
77111;SDS011;66064;50.226;14.344;2023-12-29T09:15:45;15.18;;;13.18;;
77111;SDS011;66064;50.226;14.344;2023-12-29T09:18:11;7.97;;;7.28;;
77111;SDS011;66064;50.226;14.344;2023-12-29T09:20:37;7.20;;;6.53;;
77111;SDS011;66064;50.226;14.344;2023-12-29T09:23:05;13.52;;;12.27;;
77111;SDS011;66064;50.226;14.344;2023-12-29T09:25:30;8.10;;;7.47;;
77111;SDS011;66064;50.226;14.344;2023-12-29T09:27:57;8.25;;;7.57;;
77111;SDS011;66064;50.226;14.344;2023-12-29T09:30:24;8.02;;;7.32;;
77111;SDS011;66064;50.226;14.344;2023-12-29T09:32:50;7.00;;;6.40;;
77111;SDS011;66064;50.226;14.344;2023-12-29T09:35:15;7.20;;;6.55;;
77111;SDS011;66064;50.226;14.344;2023-12-29T09:37:43;8.73;;;7.90;;
77111;SDS011;66064;50.226;14.344;2023-12-29T09:40:09;7.65;;;6.97;;
77111;SDS011;66064;50.226;14.344;2023-12-29T09:42:37;8.07;;;7.38;;
77111;SDS011;66064;50.226;14.344;2023-12-29T09:45:04;7.55;;;6.95;;
77111;SDS011;66064;50.226;14.344;2023-12-29T09:47:33;8.32;;;7.60;;
77111;SDS011;66064;50.226;14.344;2023-12-29T09:50:12;8.95;;;8.13;;
77111;SDS011;66064;50.226;14.344;2023-12-29T09:52:39;8.38;;;7.53;;
77111;SDS011;66064;50.226;14.344;2023-12-29T09:55:09;13.68;;;9.60;;
77111;SDS011;66064;50.226;14.344;2023-12-29T09:57:37;8.75;;;8.05;;
77111;SDS011;66064;50.226;14.344;2023-12-29T10:00:04;8.88;;;8.18;;
77111;SDS011;66064;50.226;14.344;2023-12-29T10:02:32;9.52;;;8.60;;
77111;SDS011;66064;50.226;14.344;2023-12-29T10:05:00;7.50;;;6.90;;
77111;SDS011;66064;50.226;14.344;2023-12-29T10:07:28;7.40;;;6.88;;
77111;SDS011;66064;50.226;14.344;2023-12-29T10:09:59;8.18;;;7.57;;
77111;SDS011;66064;50.226;14.344;2023-12-29T10:12:29;7.97;;;6.25;;
77111;SDS011;66064;50.226;14.344;2023-12-29T10:15:12;8.40;;;7.70;;
77111;SDS011;66064;50.226;14.344;2023-12-29T10:18:00;7.78;;;7.15;;
77111;SDS011;66064;50.226;14.344;2023-12-29T10:23:32;7.82;;;7.32;;
77111;SDS011;66064;50.226;14.344;2023-12-29T10:26:00;7.50;;;6.95;;
77111;SDS011;66064;50.226;14.344;2023-12-29T10:28:27;8.18;;;5.55;;
77111;SDS011;66064;50.226;14.344;2023-12-29T10:30:54;6.65;;;6.15;;
77111;SDS011;66064;50.226;14.344;2023-12-29T10:33:21;7.15;;;6.45;;
77111;SDS011;66064;50.226;14.344;2023-12-29T10:36:00;7.57;;;6.97;;
77111;SDS011;66064;50.226;14.344;2023-12-29T10:38:33;7.28;;;6.78;;
77111;SDS011;66064;50.226;14.344;2023-12-29T10:43:42;7.40;;;6.85;;
77111;SDS011;66064;50.226;14.344;2023-12-29T10:46:10;6.65;;;6.15;;
77111;SDS011;66064;50.226;14.344;2023-12-29T10:48:37;7.38;;;6.78;;
77111;SDS011;66064;50.226;14.344;2023-12-29T10:51:04;8.50;;;7.85;;
77111;SDS011;66064;50.226;14.344;2023-12-29T10:53:35;6.18;;;5.78;;
77111;SDS011;66064;50.226;14.344;2023-12-29T10:56:02;7.60;;;6.95;;
77111;SDS011;66064;50.226;14.344;2023-12-29T10:58:29;6.95;;;6.45;;
77111;SDS011;66064;50.226;14.344;2023-12-29T11:00:56;5.28;;;4.88;;
77111;SDS011;66064;50.226;14.344;2023-12-29T11:03:22;6.07;;;5.60;;
77111;SDS011;66064;50.226;14.344;2023-12-29T11:05:50;6.88;;;6.35;;
77111;SDS011;66064;50.226;14.344;2023-12-29T11:08:24;8.15;;;7.55;;
77111;SDS011;66064;50.226;14.344;2023-12-29T11:10:49;7.38;;;6.70;;
77111;SDS011;66064;50.226;14.344;2023-12-29T11:13:16;8.35;;;7.75;;
77111;SDS011;66064;50.226;14.344;2023-12-29T11:15:45;7.03;;;6.53;;
77111;SDS011;66064;50.226;14.344;2023-12-29T11:18:13;8.50;;;7.80;;
77111;SDS011;66064;50.226;14.344;2023-12-29T11:20:43;8.88;;;8.27;;
77111;SDS011;66064;50.226;14.344;2023-12-29T11:23:10;7.78;;;7.18;;
77111;SDS011;66064;50.226;14.344;2023-12-29T11:25:40;7.25;;;6.75;;
77111;SDS011;66064;50.226;14.344;2023-12-29T11:28:11;7.70;;;7.10;;
77111;SDS011;66064;50.226;14.344;2023-12-29T11:30:37;8.57;;;7.97;;
77111;SDS011;66064;50.226;14.344;2023-12-29T11:38:15;4.95;;;4.55;;
77111;SDS011;66064;50.226;14.344;2023-12-29T11:41:05;8.15;;;7.55;;
77111;SDS011;66064;50.226;14.344;2023-12-29T11:43:37;7.57;;;7.07;;
77111;SDS011;66064;50.226;14.344;2023-12-29T11:46:02;6.97;;;6.47;;
77111;SDS011;66064;50.226;14.344;2023-12-29T11:54:00;8.05;;;7.57;;
77111;SDS011;66064;50.226;14.344;2023-12-29T11:56:30;7.43;;;6.63;;
77111;SDS011;66064;50.226;14.344;2023-12-29T11:59:17;6.47;;;6.07;;
77111;SDS011;66064;50.226;14.344;2023-12-29T12:01:49;7.18;;;6.57;;
77111;SDS011;66064;50.226;14.344;2023-12-29T12:07:17;7.03;;;6.43;;
77111;SDS011;66064;50.226;14.344;2023-12-29T12:12:56;7.28;;;6.60;;
77111;SDS011;66064;50.226;14.344;2023-12-29T12:17:54;8.35;;;7.75;;
77111;SDS011;66064;50.226;14.344;2023-12-29T12:20:25;7.93;;;7.40;;
77111;SDS011;66064;50.226;14.344;2023-12-29T12:23:02;6.60;;;6.10;;
77111;SDS011;66064;50.226;14.344;2023-12-29T12:28:09;7.68;;;7.07;;
77111;SDS011;66064;50.226;14.344;2023-12-29T12:30:37;7.45;;;6.85;;
77111;SDS011;66064;50.226;14.344;2023-12-29T12:33:08;7.90;;;7.40;;
77111;SDS011;66064;50.226;14.344;2023-12-29T12:40:46;4.28;;;3.95;;
77111;SDS011;66064;50.226;14.344;2023-12-29T12:43:15;8.70;;;8.02;;
77111;SDS011;66064;50.226;14.344;2023-12-29T12:45:47;6.97;;;6.47;;
77111;SDS011;66064;50.226;14.344;2023-12-29T12:48:27;10.65;;;9.75;;
77111;SDS011;66064;50.226;14.344;2023-12-29T12:50:56;6.57;;;6.18;;
77111;SDS011;66064;50.226;14.344;2023-12-29T12:53:24;13.30;;;11.18;;
77111;SDS011;66064;50.226;14.344;2023-12-29T12:55:51;8.07;;;7.47;;
77111;SDS011;66064;50.226;14.344;2023-12-29T12:58:18;8.20;;;7.55;;
77111;SDS011;66064;50.226;14.344;2023-12-29T13:00:47;7.28;;;6.60;;
77111;SDS011;66064;50.226;14.344;2023-12-29T13:03:15;9.85;;;9.25;;
77111;SDS011;66064;50.226;14.344;2023-12-29T13:05:42;10.05;;;9.25;;
77111;SDS011;66064;50.226;14.344;2023-12-29T13:08:08;9.77;;;9.07;;
77111;SDS011;66064;50.226;14.344;2023-12-29T13:10:40;10.57;;;9.85;;
77111;SDS011;66064;50.226;14.344;2023-12-29T13:13:09;14.98;;;13.50;;
77111;SDS011;66064;50.226;14.344;2023-12-29T13:15:47;10.60;;;9.80;;
77111;SDS011;66064;50.226;14.344;2023-12-29T13:18:14;8.85;;;8.15;;
77111;SDS011;66064;50.226;14.344;2023-12-29T13:20:44;8.70;;;8.02;;
77111;SDS011;66064;50.226;14.344;2023-12-29T13:23:13;9.70;;;8.90;;
77111;SDS011;66064;50.226;14.344;2023-12-29T13:25:39;10.95;;;10.02;;
77111;SDS011;66064;50.226;14.344;2023-12-29T13:28:08;9.20;;;8.50;;
77111;SDS011;66064;50.226;14.344;2023-12-29T13:30:36;10.40;;;9.48;;
77111;SDS011;66064;50.226;14.344;2023-12-29T13:33:13;10.23;;;9.30;;
77111;SDS011;66064;50.226;14.344;2023-12-29T13:35:52;14.52;;;13.13;;
77111;SDS011;66064;50.226;14.344;2023-12-29T13:38:28;22.98;;;18.13;;
77111;SDS011;66064;50.226;14.344;2023-12-29T13:41:03;28.83;;;21.30;;
77111;SDS011;66064;50.226;14.344;2023-12-29T13:43:33;12.00;;;10.85;;
77111;SDS011;66064;50.226;14.344;2023-12-29T13:46:04;8.38;;;6.55;;
77111;SDS011;66064;50.226;14.344;2023-12-29T13:48:30;11.35;;;10.38;;
77111;SDS011;66064;50.226;14.344;2023-12-29T13:50:58;10.82;;;10.00;;
77111;SDS011;66064;50.226;14.344;2023-12-29T13:53:25;10.82;;;9.98;;
77111;SDS011;66064;50.226;14.344;2023-12-29T13:55:52;11.95;;;11.00;;
77111;SDS011;66064;50.226;14.344;2023-12-29T13:58:18;16.85;;;15.20;;
77111;SDS011;66064;50.226;14.344;2023-12-29T14:00:44;10.20;;;9.27;;
77111;SDS011;66064;50.226;14.344;2023-12-29T14:03:27;10.30;;;9.50;;
77111;SDS011;66064;50.226;14.344;2023-12-29T14:06:00;16.25;;;14.63;;
77111;SDS011;66064;50.226;14.344;2023-12-29T14:08:33;9.48;;;8.73;;
77111;SDS011;66064;50.226;14.344;2023-12-29T14:11:08;17.50;;;13.20;;
77111;SDS011;66064;50.226;14.344;2023-12-29T14:13:35;9.98;;;9.27;;
77111;SDS011;66064;50.226;14.344;2023-12-29T14:16:08;8.80;;;8.20;;
77111;SDS011;66064;50.226;14.344;2023-12-29T14:26:31;9.90;;;9.30;;
77111;SDS011;66064;50.226;14.344;2023-12-29T14:29:04;8.43;;;7.80;;
77111;SDS011;66064;50.226;14.344;2023-12-29T14:31:34;9.43;;;8.93;;
77111;SDS011;66064;50.226;14.344;2023-12-29T14:36:29;10.35;;;9.75;;
77111;SDS011;66064;50.226;14.344;2023-12-29T14:38:56;8.55;;;7.95;;
77111;SDS011;66064;50.226;14.344;2023-12-29T14:41:23;10.98;;;10.20;;
77111;SDS011;66064;50.226;14.344;2023-12-29T14:43:50;12.57;;;11.45;;
77111;SDS011;66064;50.226;14.344;2023-12-29T14:46:16;11.07;;;10.18;;
77111;SDS011;66064;50.226;14.344;2023-12-29T14:48:43;10.02;;;9.43;;
77111;SDS011;66064;50.226;14.344;2023-12-29T14:51:09;7.93;;;7.22;;
77111;SDS011;66064;50.226;14.344;2023-12-29T14:53:35;10.13;;;9.52;;
77111;SDS011;66064;50.226;14.344;2023-12-29T14:56:02;10.95;;;10.13;;
77111;SDS011;66064;50.226;14.344;2023-12-29T14:58:29;18.50;;;14.18;;
77111;SDS011;66064;50.226;14.344;2023-12-29T15:00:57;10.55;;;9.75;;
77111;SDS011;66064;50.226;14.344;2023-12-29T15:03:23;10.43;;;9.73;;
77111;SDS011;66064;50.226;14.344;2023-12-29T15:05:52;9.50;;;8.80;;
77111;SDS011;66064;50.226;14.344;2023-12-29T15:08:18;19.85;;;16.50;;
77111;SDS011;66064;50.226;14.344;2023-12-29T15:10:44;11.68;;;10.30;;